sensor_id;sensor_type;location;lat;lon;timestamp;P1;durP1;ratioP1;P2;durP2;ratioP2
677;SDS011;321;48.814;9.132;2023-02-15T00:00:53;5.37;;;3.27;;
677;SDS011;321;48.814;9.132;2023-02-15T00:03:21;5.78;;;2.10;;
677;SDS011;321;48.814;9.132;2023-02-15T00:05:47;1.67;;;1.57;;
677;SDS011;321;48.814;9.132;2023-02-15T00:08:12;3.23;;;2.20;;
677;SDS011;321;48.814;9.132;2023-02-15T00:10:38;4.43;;;3.70;;
677;SDS011;321;48.814;9.132;2023-02-15T00:13:03;3.93;;;3.30;;
677;SDS011;321;48.814;9.132;2023-02-15T00:15:29;3.50;;;3.10;;
677;SDS011;321;48.814;9.132;2023-02-15T00:17:56;3.63;;;3.30;;
677;SDS011;321;48.814;9.132;2023-02-15T00:20:22;8.45;;;4.00;;
677;SDS011;321;48.814;9.132;2023-02-15T00:22:47;3.90;;;3.50;;
677;SDS011;321;48.814;9.132;2023-02-15T00:25:13;2.00;;;1.90;;
677;SDS011;321;48.814;9.132;2023-02-15T00:27:38;1.70;;;1.30;;
677;SDS011;321;48.814;9.132;2023-02-15T00:30:04;7.33;;;4.10;;
677;SDS011;321;48.814;9.132;2023-02-15T00:32:30;3.20;;;2.90;;
677;SDS011;321;48.814;9.132;2023-02-15T00:34:56;2.83;;;2.60;;
677;SDS011;321;48.814;9.132;2023-02-15T00:37:22;3.73;;;3.43;;
677;SDS011;321;48.814;9.132;2023-02-15T00:39:47;5.10;;;4.60;;
677;SDS011;321;48.814;9.132;2023-02-15T00:42:13;5.97;;;2.40;;
677;SDS011;321;48.814;9.132;2023-02-15T00:44:38;3.50;;;3.30;;
677;SDS011;321;48.814;9.132;2023-02-15T00:47:04;2.20;;;2.00;;
677;SDS011;321;48.814;9.132;2023-02-15T00:49:29;3.23;;;2.67;;
677;SDS011;321;48.814;9.132;2023-02-15T00:51:55;4.97;;;4.37;;
677;SDS011;321;48.814;9.132;2023-02-15T00:54:20;2.30;;;1.93;;
677;SDS011;321;48.814;9.132;2023-02-15T00:56:46;3.17;;;2.97;;
677;SDS011;321;48.814;9.132;2023-02-15T00:59:11;2.93;;;2.13;;
677;SDS011;321;48.814;9.132;2023-02-15T01:01:37;3.47;;;1.87;;
677;SDS011;321;48.814;9.132;2023-02-15T01:04:02;2.20;;;1.83;;
677;SDS011;321;48.814;9.132;2023-02-15T01:06:28;5.37;;;3.80;;
677;SDS011;321;48.814;9.132;2023-02-15T01:08:54;3.43;;;3.13;;
677;SDS011;321;48.814;9.132;2023-02-15T01:11:20;3.17;;;2.57;;
677;SDS011;321;48.814;9.132;2023-02-15T01:13:48;2.45;;;2.25;;
677;SDS011;321;48.814;9.132;2023-02-15T01:16:14;4.38;;;3.72;;
677;SDS011;321;48.814;9.132;2023-02-15T01:18:40;2.60;;;2.40;;
677;SDS011;321;48.814;9.132;2023-02-15T01:21:09;2.00;;;1.90;;
677;SDS011;321;48.814;9.132;2023-02-15T01:23:36;2.78;;;2.15;;
677;SDS011;321;48.814;9.132;2023-02-15T01:26:02;2.77;;;2.40;;
677;SDS011;321;48.814;9.132;2023-02-15T01:28:28;2.57;;;2.43;;
677;SDS011;321;48.814;9.132;2023-02-15T01:30:53;4.10;;;3.70;;
677;SDS011;321;48.814;9.132;2023-02-15T01:33:19;1.30;;;1.17;;
677;SDS011;321;48.814;9.132;2023-02-15T01:35:45;2.33;;;2.00;;
677;SDS011;321;48.814;9.132;2023-02-15T01:38:11;5.70;;;4.07;;
677;SDS011;321;48.814;9.132;2023-02-15T01:40:37;9.45;;;3.70;;
677;SDS011;321;48.814;9.132;2023-02-15T01:43:07;3.00;;;2.70;;
677;SDS011;321;48.814;9.132;2023-02-15T01:45:35;2.85;;;2.10;;
677;SDS011;321;48.814;9.132;2023-02-15T01:50:46;1.30;;;1.10;;
677;SDS011;321;48.814;9.132;2023-02-15T01:53:32;11.10;;;4.88;;
677;SDS011;321;48.814;9.132;2023-02-15T01:56:12;1.73;;;1.63;;
677;SDS011;321;48.814;9.132;2023-02-15T01:58:42;1.45;;;1.33;;
677;SDS011;321;48.814;9.132;2023-02-15T02:01:08;3.30;;;1.15;;
677;SDS011;321;48.814;9.132;2023-02-15T02:06:25;6.15;;;1.88;;
677;SDS011;321;48.814;9.132;2023-02-15T02:08:52;3.85;;;2.70;;
677;SDS011;321;48.814;9.132;2023-02-15T02:11:18;3.33;;;2.13;;
677;SDS011;321;48.814;9.132;2023-02-15T02:13:44;1.63;;;1.53;;
677;SDS011;321;48.814;9.132;2023-02-15T02:16:13;2.88;;;2.67;;
677;SDS011;321;48.814;9.132;2023-02-15T02:21:34;3.53;;;3.08;;
677;SDS011;321;48.814;9.132;2023-02-15T02:24:21;2.30;;;2.10;;
677;SDS011;321;48.814;9.132;2023-02-15T02:27:18;2.03;;;1.73;;
677;SDS011;321;48.814;9.132;2023-02-15T02:33:04;3.08;;;2.88;;
677;SDS011;321;48.814;9.132;2023-02-15T02:38:23;2.20;;;1.90;;
677;SDS011;321;48.814;9.132;2023-02-15T02:46:22;2.28;;;1.70;;
677;SDS011;321;48.814;9.132;2023-02-15T02:48:55;3.20;;;2.90;;
677;SDS011;321;48.814;9.132;2023-02-15T02:51:21;3.05;;;2.70;;
677;SDS011;321;48.814;9.132;2023-02-15T02:53:51;5.67;;;3.53;;
677;SDS011;321;48.814;9.132;2023-02-15T02:59:00;2.83;;;2.63;;
677;SDS011;321;48.814;9.132;2023-02-15T03:01:36;2.47;;;2.00;;
677;SDS011;321;48.814;9.132;2023-02-15T03:04:14;2.40;;;1.95;;
677;SDS011;321;48.814;9.132;2023-02-15T03:09:23;1.23;;;1.05;;
677;SDS011;321;48.814;9.132;2023-02-15T03:11:59;3.58;;;3.28;;
677;SDS011;321;48.814;9.132;2023-02-15T03:14:28;4.80;;;4.40;;
677;SDS011;321;48.814;9.132;2023-02-15T03:16:54;3.53;;;2.17;;
677;SDS011;321;48.814;9.132;2023-02-15T03:19:30;1.30;;;0.90;;
677;SDS011;321;48.814;9.132;2023-02-15T03:22:00;2.25;;;1.90;;
677;SDS011;321;48.814;9.132;2023-02-15T03:27:13;5.38;;;1.65;;
677;SDS011;321;48.814;9.132;2023-02-15T03:29:43;5.05;;;1.92;;
677;SDS011;321;48.814;9.132;2023-02-15T03:32:14;2.28;;;1.98;;
677;SDS011;321;48.814;9.132;2023-02-15T03:34:42;3.13;;;2.03;;
677;SDS011;321;48.814;9.132;2023-02-15T03:42:31;2.10;;;1.98;;
677;SDS011;321;48.814;9.132;2023-02-15T03:44:59;5.22;;;2.72;;
677;SDS011;321;48.814;9.132;2023-02-15T03:47:34;3.25;;;2.85;;
677;SDS011;321;48.814;9.132;2023-02-15T03:50:05;1.92;;;1.83;;
677;SDS011;321;48.814;9.132;2023-02-15T03:52:53;3.72;;;1.90;;
677;SDS011;321;48.814;9.132;2023-02-15T03:55:21;7.32;;;4.72;;
677;SDS011;321;48.814;9.132;2023-02-15T03:57:47;2.05;;;1.85;;
677;SDS011;321;48.814;9.132;2023-02-15T04:00:31;4.25;;;1.30;;
677;SDS011;321;48.814;9.132;2023-02-15T04:06:12;2.90;;;2.28;;
677;SDS011;321;48.814;9.132;2023-02-15T04:08:38;3.10;;;2.30;;
677;SDS011;321;48.814;9.132;2023-02-15T04:11:22;3.50;;;2.10;;
677;SDS011;321;48.814;9.132;2023-02-15T04:13:47;1.50;;;1.40;;
677;SDS011;321;48.814;9.132;2023-02-15T04:16:21;4.35;;;4.05;;
677;SDS011;321;48.814;9.132;2023-02-15T04:18:49;3.00;;;2.80;;
677;SDS011;321;48.814;9.132;2023-02-15T04:21:34;2.92;;;2.10;;
677;SDS011;321;48.814;9.132;2023-02-15T04:24:18;4.25;;;2.83;;
677;SDS011;321;48.814;9.132;2023-02-15T04:27:02;8.60;;;2.17;;
677;SDS011;321;48.814;9.132;2023-02-15T04:29:29;2.83;;;2.63;;
677;SDS011;321;48.814;9.132;2023-02-15T04:31:56;6.03;;;3.70;;
677;SDS011;321;48.814;9.132;2023-02-15T04:34:24;2.53;;;2.38;;
677;SDS011;321;48.814;9.132;2023-02-15T04:36:50;2.28;;;2.17;;
677;SDS011;321;48.814;9.132;2023-02-15T04:39:16;1.80;;;1.40;;
677;SDS011;321;48.814;9.132;2023-02-15T04:41:43;1.90;;;1.80;;
677;SDS011;321;48.814;9.132;2023-02-15T04:44:09;1.40;;;1.02;;
677;SDS011;321;48.814;9.132;2023-02-15T04:46:34;6.33;;;1.83;;
677;SDS011;321;48.814;9.132;2023-02-15T04:49:00;1.40;;;1.07;;
677;SDS011;321;48.814;9.132;2023-02-15T04:51:26;1.77;;;1.67;;
677;SDS011;321;48.814;9.132;2023-02-15T04:53:51;2.47;;;2.27;;
677;SDS011;321;48.814;9.132;2023-02-15T04:56:20;1.45;;;1.35;;
677;SDS011;321;48.814;9.132;2023-02-15T04:58:46;2.57;;;2.37;;
677;SDS011;321;48.814;9.132;2023-02-15T05:01:13;1.75;;;1.65;;
677;SDS011;321;48.814;9.132;2023-02-15T05:03:38;5.03;;;2.78;;
677;SDS011;321;48.814;9.132;2023-02-15T05:06:04;6.23;;;1.50;;
677;SDS011;321;48.814;9.132;2023-02-15T05:08:30;3.38;;;3.08;;
677;SDS011;321;48.814;9.132;2023-02-15T05:10:56;1.58;;;1.42;;
677;SDS011;321;48.814;9.132;2023-02-15T05:13:22;4.00;;;2.85;;
677;SDS011;321;48.814;9.132;2023-02-15T05:15:48;2.80;;;2.60;;
677;SDS011;321;48.814;9.132;2023-02-15T05:18:15;9.48;;;2.88;;
677;SDS011;321;48.814;9.132;2023-02-15T05:20:42;2.50;;;2.05;;
677;SDS011;321;48.814;9.132;2023-02-15T05:23:07;1.37;;;1.20;;
677;SDS011;321;48.814;9.132;2023-02-15T05:25:33;4.33;;;2.73;;
677;SDS011;321;48.814;9.132;2023-02-15T05:28:17;1.90;;;1.80;;
677;SDS011;321;48.814;9.132;2023-02-15T05:30:49;4.15;;;3.25;;
677;SDS011;321;48.814;9.132;2023-02-15T05:33:17;1.45;;;1.13;;
677;SDS011;321;48.814;9.132;2023-02-15T05:35:42;2.37;;;2.20;;
677;SDS011;321;48.814;9.132;2023-02-15T05:38:08;2.83;;;1.50;;
677;SDS011;321;48.814;9.132;2023-02-15T05:40:34;2.90;;;1.17;;
677;SDS011;321;48.814;9.132;2023-02-15T05:42:59;2.53;;;1.50;;
677;SDS011;321;48.814;9.132;2023-02-15T05:45:25;1.70;;;1.47;;
677;SDS011;321;48.814;9.132;2023-02-15T05:47:50;2.30;;;2.10;;
677;SDS011;321;48.814;9.132;2023-02-15T05:50:16;3.60;;;3.30;;
677;SDS011;321;48.814;9.132;2023-02-15T05:52:42;3.27;;;2.90;;
677;SDS011;321;48.814;9.132;2023-02-15T05:55:08;4.10;;;3.70;;
677;SDS011;321;48.814;9.132;2023-02-15T05:57:34;4.20;;;2.27;;
677;SDS011;321;48.814;9.132;2023-02-15T06:00:01;2.08;;;1.80;;
677;SDS011;321;48.814;9.132;2023-02-15T06:02:29;5.18;;;4.78;;
677;SDS011;321;48.814;9.132;2023-02-15T06:04:58;5.40;;;3.72;;
677;SDS011;321;48.814;9.132;2023-02-15T06:07:23;2.90;;;2.70;;
677;SDS011;321;48.814;9.132;2023-02-15T06:09:49;2.83;;;1.50;;
677;SDS011;321;48.814;9.132;2023-02-15T06:12:14;3.20;;;2.10;;
677;SDS011;321;48.814;9.132;2023-02-15T06:14:40;1.83;;;1.73;;
677;SDS011;321;48.814;9.132;2023-02-15T06:17:06;2.30;;;1.93;;
677;SDS011;321;48.814;9.132;2023-02-15T06:19:31;4.50;;;1.90;;
677;SDS011;321;48.814;9.132;2023-02-15T06:21:57;3.50;;;3.17;;
677;SDS011;321;48.814;9.132;2023-02-15T06:24:22;2.70;;;2.50;;
677;SDS011;321;48.814;9.132;2023-02-15T06:26:48;1.30;;;1.07;;
677;SDS011;321;48.814;9.132;2023-02-15T06:29:13;2.53;;;2.33;;
677;SDS011;321;48.814;9.132;2023-02-15T06:31:39;2.20;;;1.97;;
677;SDS011;321;48.814;9.132;2023-02-15T06:34:05;2.43;;;1.67;;
677;SDS011;321;48.814;9.132;2023-02-15T06:36:31;4.72;;;3.05;;
677;SDS011;321;48.814;9.132;2023-02-15T06:38:57;8.63;;;5.23;;
677;SDS011;321;48.814;9.132;2023-02-15T06:41:23;2.57;;;2.37;;
677;SDS011;321;48.814;9.132;2023-02-15T06:43:49;1.17;;;0.95;;
677;SDS011;321;48.814;9.132;2023-02-15T06:46:15;9.30;;;3.20;;
677;SDS011;321;48.814;9.132;2023-02-15T06:48:40;1.27;;;1.17;;
677;SDS011;321;48.814;9.132;2023-02-15T06:51:06;3.33;;;1.70;;
677;SDS011;321;48.814;9.132;2023-02-15T06:53:32;2.90;;;2.30;;
677;SDS011;321;48.814;9.132;2023-02-15T06:56:01;6.43;;;2.87;;
677;SDS011;321;48.814;9.132;2023-02-15T06:58:31;4.85;;;2.35;;
677;SDS011;321;48.814;9.132;2023-02-15T07:01:06;4.63;;;3.08;;
677;SDS011;321;48.814;9.132;2023-02-15T07:03:33;3.95;;;3.65;;
677;SDS011;321;48.814;9.132;2023-02-15T07:05:59;3.42;;;3.13;;
677;SDS011;321;48.814;9.132;2023-02-15T07:08:26;7.38;;;2.67;;
677;SDS011;321;48.814;9.132;2023-02-15T07:10:53;2.88;;;2.67;;
677;SDS011;321;48.814;9.132;2023-02-15T07:13:19;5.38;;;4.32;;
677;SDS011;321;48.814;9.132;2023-02-15T07:15:46;3.75;;;3.35;;
677;SDS011;321;48.814;9.132;2023-02-15T07:18:12;1.48;;;1.38;;
677;SDS011;321;48.814;9.132;2023-02-15T07:20:38;1.70;;;1.60;;
677;SDS011;321;48.814;9.132;2023-02-15T07:23:06;1.48;;;1.38;;
677;SDS011;321;48.814;9.132;2023-02-15T07:25:33;3.13;;;2.92;;
677;SDS011;321;48.814;9.132;2023-02-15T07:27:59;5.28;;;2.63;;
677;SDS011;321;48.814;9.132;2023-02-15T07:30:27;4.18;;;2.45;;
677;SDS011;321;48.814;9.132;2023-02-15T07:32:57;4.60;;;4.03;;
677;SDS011;321;48.814;9.132;2023-02-15T07:35:51;3.78;;;2.55;;
677;SDS011;321;48.814;9.132;2023-02-15T07:38:24;3.53;;;3.33;;
677;SDS011;321;48.814;9.132;2023-02-15T07:40:51;4.70;;;4.40;;
677;SDS011;321;48.814;9.132;2023-02-15T07:43:22;3.03;;;2.55;;
677;SDS011;321;48.814;9.132;2023-02-15T07:45:47;2.20;;;2.00;;
677;SDS011;321;48.814;9.132;2023-02-15T07:48:13;2.10;;;1.90;;
677;SDS011;321;48.814;9.132;2023-02-15T07:50:38;2.43;;;1.73;;
677;SDS011;321;48.814;9.132;2023-02-15T07:53:04;2.20;;;2.00;;
677;SDS011;321;48.814;9.132;2023-02-15T07:55:29;4.20;;;3.90;;
677;SDS011;321;48.814;9.132;2023-02-15T07:57:55;2.17;;;1.60;;
677;SDS011;321;48.814;9.132;2023-02-15T08:00:22;3.53;;;3.33;;
677;SDS011;321;48.814;9.132;2023-02-15T08:02:53;4.78;;;3.35;;
677;SDS011;321;48.814;9.132;2023-02-15T08:05:38;2.58;;;2.00;;
677;SDS011;321;48.814;9.132;2023-02-15T08:08:10;7.78;;;3.63;;
677;SDS011;321;48.814;9.132;2023-02-15T08:19:08;3.25;;;3.05;;
677;SDS011;321;48.814;9.132;2023-02-15T08:21:37;4.32;;;3.90;;
677;SDS011;321;48.814;9.132;2023-02-15T08:24:04;4.13;;;3.53;;
677;SDS011;321;48.814;9.132;2023-02-15T08:26:31;2.83;;;2.63;;
677;SDS011;321;48.814;9.132;2023-02-15T08:28:58;5.10;;;3.42;;
677;SDS011;321;48.814;9.132;2023-02-15T08:31:24;3.53;;;2.45;;
677;SDS011;321;48.814;9.132;2023-02-15T08:33:51;6.53;;;3.60;;
677;SDS011;321;48.814;9.132;2023-02-15T08:36:19;4.00;;;3.67;;
677;SDS011;321;48.814;9.132;2023-02-15T08:38:46;5.95;;;3.72;;
677;SDS011;321;48.814;9.132;2023-02-15T08:41:19;4.50;;;4.10;;
677;SDS011;321;48.814;9.132;2023-02-15T08:43:47;3.58;;;3.22;;
677;SDS011;321;48.814;9.132;2023-02-15T08:46:16;5.32;;;3.60;;
677;SDS011;321;48.814;9.132;2023-02-15T08:48:42;8.33;;;4.73;;
677;SDS011;321;48.814;9.132;2023-02-15T08:51:09;4.30;;;3.97;;
677;SDS011;321;48.814;9.132;2023-02-15T08:53:43;5.72;;;4.78;;
677;SDS011;321;48.814;9.132;2023-02-15T08:56:11;2.83;;;2.50;;
677;SDS011;321;48.814;9.132;2023-02-15T08:58:37;4.43;;;3.43;;
677;SDS011;321;48.814;9.132;2023-02-15T09:01:22;6.75;;;3.97;;
677;SDS011;321;48.814;9.132;2023-02-15T09:03:55;4.38;;;3.97;;
677;SDS011;321;48.814;9.132;2023-02-15T09:06:29;5.82;;;4.00;;
677;SDS011;321;48.814;9.132;2023-02-15T09:08:55;5.45;;;3.10;;
677;SDS011;321;48.814;9.132;2023-02-15T09:11:22;4.60;;;3.80;;
677;SDS011;321;48.814;9.132;2023-02-15T09:13:54;3.33;;;3.03;;
677;SDS011;321;48.814;9.132;2023-02-15T09:16:25;4.13;;;3.83;;
677;SDS011;321;48.814;9.132;2023-02-15T09:18:52;10.40;;;4.18;;
677;SDS011;321;48.814;9.132;2023-02-15T09:21:20;6.45;;;5.78;;
677;SDS011;321;48.814;9.132;2023-02-15T09:23:48;5.43;;;5.00;;
677;SDS011;321;48.814;9.132;2023-02-15T09:26:16;5.78;;;4.40;;
677;SDS011;321;48.814;9.132;2023-02-15T09:28:43;4.03;;;3.42;;
677;SDS011;321;48.814;9.132;2023-02-15T09:31:11;6.47;;;5.13;;
677;SDS011;321;48.814;9.132;2023-02-15T09:33:38;5.20;;;4.70;;
677;SDS011;321;48.814;9.132;2023-02-15T09:36:05;4.57;;;4.18;;
677;SDS011;321;48.814;9.132;2023-02-15T09:38:38;7.30;;;5.78;;
677;SDS011;321;48.814;9.132;2023-02-15T09:47:10;5.40;;;5.00;;
677;SDS011;321;48.814;9.132;2023-02-15T09:49:54;6.63;;;5.20;;
677;SDS011;321;48.814;9.132;2023-02-15T09:55:20;4.22;;;3.83;;
677;SDS011;321;48.814;9.132;2023-02-15T09:57:53;4.90;;;4.50;;
677;SDS011;321;48.814;9.132;2023-02-15T10:03:40;8.07;;;5.43;;
677;SDS011;321;48.814;9.132;2023-02-15T10:06:54;4.57;;;4.22;;
677;SDS011;321;48.814;9.132;2023-02-15T10:12:57;5.10;;;4.20;;
677;SDS011;321;48.814;9.132;2023-02-15T10:18:33;6.55;;;5.60;;
677;SDS011;321;48.814;9.132;2023-02-15T10:21:28;8.95;;;6.32;;
677;SDS011;321;48.814;9.132;2023-02-15T10:26:55;5.90;;;5.28;;
677;SDS011;321;48.814;9.132;2023-02-15T10:29:35;7.70;;;6.63;;
677;SDS011;321;48.814;9.132;2023-02-15T10:34:54;8.70;;;6.75;;
677;SDS011;321;48.814;9.132;2023-02-15T10:37:28;7.28;;;6.15;;
677;SDS011;321;48.814;9.132;2023-02-15T10:42:50;8.23;;;6.07;;
677;SDS011;321;48.814;9.132;2023-02-15T10:48:16;7.53;;;6.13;;
677;SDS011;321;48.814;9.132;2023-02-15T10:50:57;7.23;;;6.27;;
677;SDS011;321;48.814;9.132;2023-02-15T10:56:24;8.07;;;6.37;;
677;SDS011;321;48.814;9.132;2023-02-15T11:01:59;10.80;;;5.97;;
677;SDS011;321;48.814;9.132;2023-02-15T11:07:20;8.10;;;5.57;;
677;SDS011;321;48.814;9.132;2023-02-15T11:09:49;10.53;;;6.40;;
677;SDS011;321;48.814;9.132;2023-02-15T11:12:30;8.00;;;6.20;;
677;SDS011;321;48.814;9.132;2023-02-15T11:18:11;6.10;;;5.43;;
677;SDS011;321;48.814;9.132;2023-02-15T11:23:21;10.67;;;7.37;;
677;SDS011;321;48.814;9.132;2023-02-15T11:28:34;7.50;;;5.80;;
677;SDS011;321;48.814;9.132;2023-02-15T11:31:16;9.43;;;6.40;;
677;SDS011;321;48.814;9.132;2023-02-15T11:33:46;7.20;;;6.13;;
677;SDS011;321;48.814;9.132;2023-02-15T11:36:21;8.80;;;7.10;;
677;SDS011;321;48.814;9.132;2023-02-15T11:39:14;8.87;;;5.77;;
677;SDS011;321;48.814;9.132;2023-02-15T11:41:50;6.60;;;6.00;;
677;SDS011;321;48.814;9.132;2023-02-15T11:44:27;10.43;;;7.10;;
677;SDS011;321;48.814;9.132;2023-02-15T11:47:02;11.77;;;7.13;;
677;SDS011;321;48.814;9.132;2023-02-15T11:49:31;13.03;;;8.27;;
677;SDS011;321;48.814;9.132;2023-02-15T11:52:02;6.27;;;5.60;;
677;SDS011;321;48.814;9.132;2023-02-15T11:54:31;8.40;;;6.80;;
677;SDS011;321;48.814;9.132;2023-02-15T11:57:15;13.43;;;7.10;;
677;SDS011;321;48.814;9.132;2023-02-15T11:59:45;9.63;;;6.87;;
677;SDS011;321;48.814;9.132;2023-02-15T12:02:18;11.63;;;7.13;;
677;SDS011;321;48.814;9.132;2023-02-15T12:05:28;6.87;;;6.10;;
677;SDS011;321;48.814;9.132;2023-02-15T12:07:40;6.23;;;5.30;;
677;SDS011;321;48.814;9.132;2023-02-15T12:12:49;8.00;;;6.40;;
677;SDS011;321;48.814;9.132;2023-02-15T12:15:33;6.77;;;5.47;;
677;SDS011;321;48.814;9.132;2023-02-15T12:18:00;8.83;;;5.30;;
677;SDS011;321;48.814;9.132;2023-02-15T12:20:29;8.27;;;5.63;;
677;SDS011;321;48.814;9.132;2023-02-15T12:23:00;10.77;;;7.17;;
677;SDS011;321;48.814;9.132;2023-02-15T12:25:35;10.20;;;7.33;;
677;SDS011;321;48.814;9.132;2023-02-15T12:28:05;9.77;;;6.43;;
677;SDS011;321;48.814;9.132;2023-02-15T12:30:49;9.47;;;6.90;;
677;SDS011;321;48.814;9.132;2023-02-15T12:33:20;10.40;;;6.43;;
677;SDS011;321;48.814;9.132;2023-02-15T12:35:58;9.30;;;7.00;;
677;SDS011;321;48.814;9.132;2023-02-15T12:38:36;7.90;;;6.03;;
677;SDS011;321;48.814;9.132;2023-02-15T12:41:03;6.43;;;5.27;;
677;SDS011;321;48.814;9.132;2023-02-15T12:43:46;10.07;;;6.73;;
677;SDS011;321;48.814;9.132;2023-02-15T12:46:20;7.33;;;6.30;;
677;SDS011;321;48.814;9.132;2023-02-15T12:48:51;8.67;;;6.30;;
677;SDS011;321;48.814;9.132;2023-02-15T12:51:43;7.23;;;6.30;;
677;SDS011;321;48.814;9.132;2023-02-15T12:55:01;7.13;;;6.50;;
677;SDS011;321;48.814;9.132;2023-02-15T13:02:52;5.90;;;5.30;;
677;SDS011;321;48.814;9.132;2023-02-15T13:13:27;7.80;;;4.97;;
677;SDS011;321;48.814;9.132;2023-02-15T13:15:58;7.60;;;6.80;;
677;SDS011;321;48.814;9.132;2023-02-15T13:18:31;7.73;;;6.63;;
677;SDS011;321;48.814;9.132;2023-02-15T13:21:18;8.07;;;6.47;;
677;SDS011;321;48.814;9.132;2023-02-15T13:23:54;6.47;;;5.83;;
677;SDS011;321;48.814;9.132;2023-02-15T13:26:29;5.70;;;5.27;;
677;SDS011;321;48.814;9.132;2023-02-15T13:28:58;8.10;;;5.53;;
677;SDS011;321;48.814;9.132;2023-02-15T13:31:30;8.07;;;6.87;;
677;SDS011;321;48.814;9.132;2023-02-15T13:34:00;12.00;;;7.33;;
677;SDS011;321;48.814;9.132;2023-02-15T13:50:38;7.47;;;6.40;;
677;SDS011;321;48.814;9.132;2023-02-15T14:01:08;7.97;;;7.17;;
677;SDS011;321;48.814;9.132;2023-02-15T14:06:28;9.07;;;6.70;;
677;SDS011;321;48.814;9.132;2023-02-15T14:11:55;7.77;;;6.00;;
677;SDS011;321;48.814;9.132;2023-02-15T14:14:46;6.33;;;5.63;;
677;SDS011;321;48.814;9.132;2023-02-15T14:17:40;9.20;;;6.23;;
677;SDS011;321;48.814;9.132;2023-02-15T14:20:17;7.87;;;6.67;;
677;SDS011;321;48.814;9.132;2023-02-15T14:23:26;7.27;;;6.57;;
677;SDS011;321;48.814;9.132;2023-02-15T14:28:42;7.63;;;6.33;;
677;SDS011;321;48.814;9.132;2023-02-15T14:31:15;8.40;;;6.50;;
677;SDS011;321;48.814;9.132;2023-02-15T14:33:57;8.30;;;7.20;;
677;SDS011;321;48.814;9.132;2023-02-15T14:36:23;6.07;;;4.33;;
677;SDS011;321;48.814;9.132;2023-02-15T14:38:59;8.43;;;7.00;;
677;SDS011;321;48.814;9.132;2023-02-15T14:42:23;8.70;;;5.67;;
677;SDS011;321;48.814;9.132;2023-02-15T14:45:01;11.57;;;6.33;;
677;SDS011;321;48.814;9.132;2023-02-15T14:47:40;7.77;;;5.60;;
677;SDS011;321;48.814;9.132;2023-02-15T14:50:44;7.23;;;5.43;;
677;SDS011;321;48.814;9.132;2023-02-15T14:53:49;6.33;;;5.37;;
677;SDS011;321;48.814;9.132;2023-02-15T14:58:35;9.23;;;5.80;;
677;SDS011;321;48.814;9.132;2023-02-15T15:01:09;10.30;;;4.90;;
677;SDS011;321;48.814;9.132;2023-02-15T15:03:35;6.80;;;5.10;;
677;SDS011;321;48.814;9.132;2023-02-15T15:06:20;5.10;;;4.67;;
677;SDS011;321;48.814;9.132;2023-02-15T15:08:55;6.57;;;5.93;;
677;SDS011;321;48.814;9.132;2023-02-15T15:13:55;8.43;;;5.37;;
677;SDS011;321;48.814;9.132;2023-02-15T15:19:01;5.77;;;4.50;;
677;SDS011;321;48.814;9.132;2023-02-15T15:32:42;5.07;;;4.57;;
677;SDS011;321;48.814;9.132;2023-02-15T15:35:17;10.13;;;5.97;;
677;SDS011;321;48.814;9.132;2023-02-15T15:41:00;5.37;;;4.87;;
677;SDS011;321;48.814;9.132;2023-02-15T15:46:24;7.70;;;5.30;;
677;SDS011;321;48.814;9.132;2023-02-15T15:49:02;7.03;;;5.33;;
677;SDS011;321;48.814;9.132;2023-02-15T15:51:44;7.00;;;6.30;;
677;SDS011;321;48.814;9.132;2023-02-15T15:54:14;7.80;;;6.90;;
677;SDS011;321;48.814;9.132;2023-02-15T15:56:47;7.43;;;5.00;;
677;SDS011;321;48.814;9.132;2023-02-15T15:59:19;5.07;;;4.57;;
677;SDS011;321;48.814;9.132;2023-02-15T16:01:50;7.73;;;4.70;;
677;SDS011;321;48.814;9.132;2023-02-15T16:04:26;5.67;;;5.13;;
677;SDS011;321;48.814;9.132;2023-02-15T16:06:57;7.43;;;6.40;;
677;SDS011;321;48.814;9.132;2023-02-15T16:09:24;7.37;;;6.60;;
677;SDS011;321;48.814;9.132;2023-02-15T16:11:55;11.27;;;7.00;;
677;SDS011;321;48.814;9.132;2023-02-15T16:14:32;6.73;;;4.80;;
677;SDS011;321;48.814;9.132;2023-02-15T16:17:02;6.83;;;5.47;;
677;SDS011;321;48.814;9.132;2023-02-15T16:19:32;7.10;;;5.93;;
677;SDS011;321;48.814;9.132;2023-02-15T16:22:01;8.25;;;5.60;;
677;SDS011;321;48.814;9.132;2023-02-15T16:24:34;7.17;;;5.20;;
677;SDS011;321;48.814;9.132;2023-02-15T16:29:54;5.97;;;5.40;;
677;SDS011;321;48.814;9.132;2023-02-15T16:32:21;6.37;;;5.23;;
677;SDS011;321;48.814;9.132;2023-02-15T16:34:52;5.07;;;4.60;;
677;SDS011;321;48.814;9.132;2023-02-15T16:37:22;7.30;;;5.25;;
677;SDS011;321;48.814;9.132;2023-02-15T16:39:52;11.30;;;5.88;;
677;SDS011;321;48.814;9.132;2023-02-15T16:42:19;6.20;;;5.23;;
677;SDS011;321;48.814;9.132;2023-02-15T16:44:48;8.00;;;5.47;;
677;SDS011;321;48.814;9.132;2023-02-15T16:47:33;6.70;;;6.00;;
677;SDS011;321;48.814;9.132;2023-02-15T16:50:05;6.93;;;5.07;;
677;SDS011;321;48.814;9.132;2023-02-15T16:52:31;6.70;;;6.10;;
677;SDS011;321;48.814;9.132;2023-02-15T16:55:00;7.13;;;5.00;;
677;SDS011;321;48.814;9.132;2023-02-15T16:57:32;7.38;;;5.68;;
677;SDS011;321;48.814;9.132;2023-02-15T17:00:02;8.68;;;5.45;;
677;SDS011;321;48.814;9.132;2023-02-15T17:02:31;10.98;;;7.00;;
677;SDS011;321;48.814;9.132;2023-02-15T17:07:38;7.25;;;6.65;;
677;SDS011;321;48.814;9.132;2023-02-15T17:10:15;12.05;;;5.40;;
677;SDS011;321;48.814;9.132;2023-02-15T17:12:53;7.78;;;5.05;;
677;SDS011;321;48.814;9.132;2023-02-15T17:17:58;4.78;;;4.13;;
677;SDS011;321;48.814;9.132;2023-02-15T17:20:28;7.32;;;6.22;;
677;SDS011;321;48.814;9.132;2023-02-15T17:22:54;3.80;;;3.43;;
677;SDS011;321;48.814;9.132;2023-02-15T17:25:23;6.40;;;4.85;;
677;SDS011;321;48.814;9.132;2023-02-15T17:28:00;4.65;;;4.20;;
677;SDS011;321;48.814;9.132;2023-02-15T17:30:33;6.37;;;4.30;;
677;SDS011;321;48.814;9.132;2023-02-15T17:33:03;5.13;;;4.35;;
677;SDS011;321;48.814;9.132;2023-02-15T17:35:29;5.07;;;4.63;;
677;SDS011;321;48.814;9.132;2023-02-15T17:40:39;5.07;;;4.65;;
677;SDS011;321;48.814;9.132;2023-02-15T17:43:05;6.53;;;4.90;;
677;SDS011;321;48.814;9.132;2023-02-15T17:45:35;10.53;;;5.40;;
677;SDS011;321;48.814;9.132;2023-02-15T17:48:09;5.85;;;4.47;;
677;SDS011;321;48.814;9.132;2023-02-15T17:50:55;4.85;;;4.40;;
677;SDS011;321;48.814;9.132;2023-02-15T17:53:21;5.00;;;4.53;;
677;SDS011;321;48.814;9.132;2023-02-15T17:55:47;3.63;;;3.30;;
677;SDS011;321;48.814;9.132;2023-02-15T17:58:13;5.70;;;5.10;;
677;SDS011;321;48.814;9.132;2023-02-15T18:00:44;3.10;;;2.90;;
677;SDS011;321;48.814;9.132;2023-02-15T18:03:43;4.63;;;4.10;;
677;SDS011;321;48.814;9.132;2023-02-15T18:06:29;10.07;;;5.82;;
677;SDS011;321;48.814;9.132;2023-02-15T18:09:15;8.07;;;6.82;;
677;SDS011;321;48.814;9.132;2023-02-15T18:12:00;8.20;;;7.00;;
677;SDS011;321;48.814;9.132;2023-02-15T18:14:27;7.30;;;6.70;;
677;SDS011;321;48.814;9.132;2023-02-15T18:16:53;6.57;;;5.50;;
677;SDS011;321;48.814;9.132;2023-02-15T18:19:23;5.57;;;4.00;;
677;SDS011;321;48.814;9.132;2023-02-15T18:21:50;5.60;;;4.78;;
677;SDS011;321;48.814;9.132;2023-02-15T18:24:20;5.53;;;5.03;;
677;SDS011;321;48.814;9.132;2023-02-15T18:26:51;5.78;;;4.78;;
677;SDS011;321;48.814;9.132;2023-02-15T18:29:18;8.32;;;6.60;;
677;SDS011;321;48.814;9.132;2023-02-15T18:31:44;5.97;;;4.40;;
677;SDS011;321;48.814;9.132;2023-02-15T18:34:19;5.03;;;4.57;;
677;SDS011;321;48.814;9.132;2023-02-15T18:36:57;7.43;;;3.35;;
677;SDS011;321;48.814;9.132;2023-02-15T18:41:52;4.73;;;3.93;;
677;SDS011;321;48.814;9.132;2023-02-15T18:44:18;5.07;;;4.13;;
677;SDS011;321;48.814;9.132;2023-02-15T18:46:43;3.67;;;3.37;;
677;SDS011;321;48.814;9.132;2023-02-15T18:49:09;7.10;;;5.07;;
677;SDS011;321;48.814;9.132;2023-02-15T18:51:34;6.73;;;5.40;;
677;SDS011;321;48.814;9.132;2023-02-15T18:54:04;2.50;;;2.30;;
677;SDS011;321;48.814;9.132;2023-02-15T18:56:36;6.50;;;3.80;;
677;SDS011;321;48.814;9.132;2023-02-15T18:59:01;4.93;;;4.20;;
677;SDS011;321;48.814;9.132;2023-02-15T19:01:27;4.07;;;3.13;;
677;SDS011;321;48.814;9.132;2023-02-15T19:03:52;5.50;;;4.03;;
677;SDS011;321;48.814;9.132;2023-02-15T19:06:19;4.30;;;3.97;;